METAR AND TAF INFORMATION
METAR FOR WAJJ
ADDS - METARS form results

(0843 UTC 08 December 2019)
Data provider http://aviationweather.gov/metar/data/
 
METAR text: WAJJ 080830Z 28016KT 9999 FEW011CB FEW013 29/22 Q1006 NOSIG
Conditions at: WAJJ (JAYAPURA/SENTANI, ID) observed 0830 UTC 08 December 2019
Temperature: 29.0°C (84°F)
Dewpoint: 22.0°C (72°F) [RH = 66%]
Pressure (altimeter): 29.70 inches Hg (1006.0 mb)
Winds: from the W (280 degrees) at 18 MPH (16 knots; 8.2 m/s)
Visibility: 6 or more miles (10+ km)
Ceiling: at least 12,000 feet AGL
Clouds: few clouds at 1100 feet AGL
few clouds at 1300 feet AGL
Weather: no significant weather observed at this time

METAR text: WAJJ 080800Z 28016KT 9999 FEW013 30/23 Q1006 NOSIG
Conditions at: WAJJ (JAYAPURA/SENTANI, ID) observed 0800 UTC 08 December 2019
Temperature: 30.0°C (86°F)
Dewpoint: 23.0°C (73°F) [RH = 66%]
Pressure (altimeter): 29.70 inches Hg (1006.0 mb)
Winds: from the W (280 degrees) at 18 MPH (16 knots; 8.2 m/s)
Visibility: 6 or more miles (10+ km)
Ceiling: at least 12,000 feet AGL
Clouds: few clouds at 1300 feet AGL
Weather: no significant weather observed at this time

 AIRPORT MAP

 RUNWAY INFORMATION
Runway 12 Runway length 7161 ft Runway width 148 ft
Runway elevation 292 ft Runway displaced threshold 0 ft Runway heading 127
Runway 30 Runway length 7161 ft Runway width 148 ft
Runway elevation 289 ft Runway displaced threshold 0 ft Runway heading 307

 AIRPORT FREQUENCIES
Type APP Name JAYAPURA A Frequency 119.1 MHZ
Type ATIS Name ATIS Frequency 128.8 MHZ
Type INFO Name JAYAPURA I Frequency 295.6 MHZ
Type TWR Name TWR Frequency 118.1 MHZ

 AIRPORT NEAR NAVIGATION AIDS
Type VOR-DME Name Jayapura Frequency 116200 KHZ
Type NDB Name Jayapura Frequency 395 KHZ




Powered by Virtual Airlines Manager [v2.6.2]